Bridgeport, New York
Current Conditions -  °F | °C
As of 6:13 PM on Wednesday 17 Dec 2014 (Local Time) from KSYR Reporting Station
Light Snow Light Snow  
Wind Chill: -5°   Ceiling: 1400
Heat Index:   Visibility: 8mi
Dew Point:   Wind: 14mph
Humidity: 96%   Direction: 250°WSW
Pressure: 29.89"   Gusts: NA
Location:  43.15°N, 75.97°W
Report Text: KSYR 172313Z 25012KT 8SM -SN SCT008 BKN014 OVC032 01/00 A2989 RMK AO2 CIG 009 NW P0001 T00060000 $
Loading
Personal Weather Stations






























Interactive Weather Map New forecast layout! Learn more

10-Day Weather Forecast

Advertisements
Track Severe Weather on mobile